CET,Max TemperatureF,Mean TemperatureF,Min TemperatureF,Max Dew PointF,MeanDew PointF,Min DewpointF,Max Humidity, Mean Humidity, Min Humidity, Max Sea Level PressureIn, Mean Sea Level PressureIn, Min Sea Level PressureIn, Max VisibilityMiles, Mean VisibilityMiles, Min VisibilityMiles, Max Wind SpeedMPH, Mean Wind SpeedMPH, Max Gust SpeedMPH,PrecipitationIn, CloudCover, Events, WindDirDegrees
2011-10-1,78,64,50,55,51,48,100,65,34,30.30,30.27,30.21,6,6,6,10,5,,0.00,1,Fog,350
2011-10-2,75,63,51,55,49,46,88,59,36,30.21,30.18,30.15,,,,15,8,,0.00,,,10
2011-10-3,73,58,42,45,40,36,87,51,27,30.27,30.23,30.18,,,,5,3,,0.00,,,351
2011-10-4,78,61,44,50,44,39,81,55,32,30.21,30.17,30.12,,,,5,4,,0.00,,,170
2011-10-5,78,63,48,55,49,43,82,59,32,30.15,30.13,30.09,,,,9,4,,0.00,,,235
2011-10-6,75,62,50,54,49,46,88,62,41,30.12,30.08,29.98,,,,8,3,,0.00,,,208
2011-10-7,73,63,53,52,49,46,88,64,41,29.83,29.74,29.62,6,6,6,21,8,,0.00,6,,219
2011-10-8,57,52,46,45,43,39,93,79,51,29.86,29.82,29.77,6,6,6,13,9,,0.00,5,,254
2011-10-9,57,49,41,46,42,41,100,80,59,29.98,29.85,29.80,6,6,5,14,6,25,0.00,5,,349
2011-10-10,57,45,33,41,36,34,100,72,44,30.09,30.06,30.04,,,,10,6,,0.00,,,331
2011-10-11,50,47,44,50,46,39,100,96,81,30.09,30.06,30.04,5,3,2,8,4,,0.00,8,,184
2011-10-12,69,60,51,55,52,46,100,75,52,29.98,29.95,29.92,6,5,3,23,12,,0.00,7,Rain,258
2011-10-13,59,54,48,45,40,34,87,63,39,30.21,30.12,30.04,6,6,6,8,5,,0.00,6,,14
2011-10-14,53,42,32,39,35,32,100,74,44,30.45,30.35,30.30,6,5,0,14,7,,0.00,2,Fog,359
2011-10-15,55,40,26,39,32,27,100,74,44,30.48,30.43,30.36,6,5,0,13,6,,0.00,4,Fog-Rain,340
2011-10-16,51,40,30,32,28,27,93,64,40,30.51,30.46,30.42,6,6,6,14,12,,0.00,1,,27
2011-10-17,51,37,23,28,24,21,93,48,32,30.39,30.34,30.30,,,,9,3,,0.00,,,13
2011-10-18,53,38,24,28,24,21,93,44,28,30.27,30.21,30.15,,,,6,2,,0.00,,,179
2011-10-19,64,47,30,37,28,23,75,50,29,30.18,30.13,30.06,,,,14,9,,0.00,,,153
2011-10-20,55,52,50,48,43,37,82,70,58,30.15,30.10,30.06,6,6,6,9,8,,0.00,6,Rain,263
2011-10-21,46,44,42,43,43,41,100,91,87,30.33,30.26,30.18,6,5,2,14,10,,0.00,8,Rain,349
2011-10-22,46,42,37,45,40,36,100,92,87,30.36,30.33,30.30,6,6,6,6,3,,0.00,7,Rain,4
2011-10-23,53,50,46,52,49,46,100,98,94,30.30,30.27,30.24,5,3,2,7,4,,0.00,7,Rain,23
2011-10-24,55,50,46,48,47,46,100,89,72,30.21,30.19,30.18,2,2,2,5,1,,0.00,7,Fog-Rain,166
2011-10-25,59,52,44,48,46,45,100,80,59,30.21,30.17,30.15,4,3,2,13,7,,0.00,6,,117
2011-10-26,62,50,39,43,41,39,100,71,48,30.24,30.21,30.18,,,,8,4,,0.00,,,140
2011-10-27,60,50,39,41,39,36,93,71,45,30.33,30.29,30.27,,,,8,4,,0.00,,,104
2011-10-28,59,46,32,41,36,32,100,74,42,30.42,30.39,30.36,5,4,4,6,2,,0.00,1,Fog,79
2011-10-29,57,44,32,39,36,32,100,77,51,30.45,30.41,30.36,6,2,0,5,1,,0.00,2,Fog,52
2011-10-30,57,45,33,39,37,34,100,74,48,30.36,30.32,30.27,4,3,2,4,2,,0.00,5,Fog,196
2011-10-31,57,46,35,41,37,36,100,74,44,30.27,30.24,30.21,4,2,0,4,0,,0.00,5,Fog,190